createdAt,value
2023-04-27T00:00:26.326Z,4.57
2023-04-27T00:02:56.334Z,5.10
2023-04-27T00:05:26.704Z,4.90
2023-04-27T00:07:59.074Z,4.93
2023-04-27T00:10:28.803Z,5.10
2023-04-27T00:12:58.527Z,4.60
2023-04-27T00:15:28.431Z,5.23
2023-04-27T00:17:58.527Z,5.03
2023-04-27T00:20:28.653Z,4.43
2023-04-27T00:23:00.987Z,4.30
2023-04-27T00:25:30.773Z,4.87
2023-04-27T00:28:00.525Z,4.73
2023-04-27T00:30:30.361Z,5.17
2023-04-27T00:33:00.179Z,4.30
2023-04-27T00:35:30.049Z,4.87
2023-04-27T00:38:04.089Z,4.77
2023-04-27T00:40:34.087Z,4.40
2023-04-27T00:43:03.914Z,4.70
2023-04-27T00:45:33.845Z,4.30
2023-04-27T00:48:04.249Z,4.10
2023-04-27T00:50:34.360Z,4.00
2023-04-27T00:53:06.698Z,4.20
2023-04-27T00:55:36.452Z,4.60
2023-04-27T00:58:06.231Z,4.67
2023-04-27T01:00:40.207Z,4.77
2023-04-27T01:03:10.447Z,4.20
2023-04-27T01:05:40.998Z,4.50
2023-04-27T01:08:13.621Z,4.70
2023-04-27T01:10:43.528Z,4.20
2023-04-27T01:13:13.740Z,4.43
2023-04-27T01:15:44.147Z,3.87
2023-04-27T01:18:13.968Z,3.83
2023-04-27T01:20:45.229Z,4.30
2023-04-27T01:23:19.200Z,4.00
2023-04-27T01:25:48.941Z,4.43
2023-04-27T01:28:18.691Z,3.93
2023-04-27T01:30:48.421Z,4.97
2023-04-27T01:33:18.177Z,4.70
2023-04-27T01:35:51.498Z,4.40
2023-04-27T01:38:24.321Z,3.57
2023-04-27T01:40:55.415Z,3.20
2023-04-27T01:43:25.168Z,4.07
2023-04-27T01:45:54.913Z,4.17
2023-04-27T01:48:24.744Z,4.70
2023-04-27T01:50:54.736Z,4.80
2023-04-27T01:53:27.050Z,5.60
2023-04-27T01:55:57.393Z,4.50
2023-04-27T01:58:27.905Z,4.83
2023-04-27T02:00:57.772Z,4.43
2023-04-27T02:03:27.692Z,5.03
2023-04-27T02:05:57.617Z,5.00
2023-04-27T02:08:29.993Z,5.43
2023-04-27T02:10:59.749Z,4.60
2023-04-27T02:13:29.530Z,4.43
2023-04-27T02:16:02.279Z,4.60
2023-04-27T02:18:32.619Z,5.20
2023-04-27T02:21:02.470Z,4.57
2023-04-27T02:23:35.830Z,4.47
2023-04-27T02:26:06.461Z,4.50
2023-04-27T02:28:36.238Z,4.30
2023-04-27T02:31:06.515Z,4.03
2023-04-27T02:33:36.276Z,4.80
2023-04-27T02:36:06.434Z,4.40
2023-04-27T02:38:38.821Z,4.30
2023-04-27T02:41:08.609Z,4.77
2023-04-27T02:43:38.343Z,4.07
2023-04-27T02:46:09.809Z,4.37
2023-04-27T02:48:39.654Z,4.93
2023-04-27T02:51:09.775Z,5.07
2023-04-27T02:53:42.144Z,4.23
2023-04-27T02:56:11.910Z,4.80
2023-04-27T02:58:41.636Z,4.20
2023-04-27T03:01:11.695Z,4.80
2023-04-27T03:03:41.665Z,4.70
2023-04-27T03:06:11.529Z,4.23
2023-04-27T03:08:43.959Z,4.40
2023-04-27T03:11:13.748Z,4.67
2023-04-27T03:13:44.543Z,4.20
2023-04-27T03:16:14.776Z,5.10
2023-04-27T03:18:44.580Z,4.77
2023-04-27T03:21:17.051Z,5.27
2023-04-27T03:23:49.419Z,5.20
2023-04-27T03:26:20.551Z,4.47
2023-04-27T03:28:50.296Z,4.63
2023-04-27T03:31:20.063Z,4.23
2023-04-27T03:33:49.836Z,5.13
2023-04-27T03:36:19.566Z,4.90
2023-04-27T03:38:51.863Z,5.80
2023-04-27T03:41:22.289Z,5.30
2023-04-27T03:43:53.647Z,4.90
2023-04-27T03:46:26.650Z,5.43
2023-04-27T03:48:56.436Z,5.80
2023-04-27T03:51:27.188Z,5.23
2023-04-27T03:53:59.514Z,5.93
2023-04-27T03:56:29.369Z,5.50
2023-04-27T03:58:59.276Z,5.90
2023-04-27T04:01:36.537Z,5.77
2023-04-27T04:04:06.406Z,5.50
2023-04-27T04:06:36.560Z,5.63
2023-04-27T04:09:08.917Z,5.00
2023-04-27T04:11:38.942Z,5.43
2023-04-27T04:14:10.022Z,5.67
2023-04-27T04:16:39.854Z,5.33
2023-04-27T04:19:09.659Z,5.57
2023-04-27T04:21:39.861Z,6.03
2023-04-27T04:24:13.731Z,6.30
2023-04-27T04:26:43.518Z,5.70
2023-04-27T04:29:13.731Z,5.70
2023-04-27T04:31:43.827Z,7.07
2023-04-27T04:34:14.675Z,6.10
2023-04-27T04:36:44.552Z,5.93
2023-04-27T04:39:17.446Z,6.30
2023-04-27T04:41:47.415Z,5.67
2023-04-27T04:44:17.269Z,6.00
2023-04-27T04:46:48.062Z,5.93
2023-04-27T04:49:17.853Z,6.03
2023-04-27T04:51:48.154Z,6.23
2023-04-27T04:54:20.532Z,5.90
2023-04-27T04:56:51.120Z,6.27
2023-04-27T04:59:21.520Z,6.10
2023-04-27T05:01:51.372Z,6.13
2023-04-27T05:04:21.508Z,5.43
2023-04-27T05:06:51.398Z,5.47
2023-04-27T05:09:23.711Z,7.03
2023-04-27T05:11:53.428Z,6.50
2023-04-27T05:14:23.182Z,6.60
2023-04-27T05:16:52.918Z,6.30
2023-04-27T05:19:22.717Z,5.70
2023-04-27T05:21:52.472Z,6.30
2023-04-27T05:24:24.814Z,5.90
2023-04-27T05:26:54.590Z,6.13
2023-04-27T05:29:24.782Z,6.30
2023-04-27T05:31:54.611Z,7.00
2023-04-27T05:34:24.441Z,5.87
2023-04-27T05:36:54.190Z,6.63
2023-04-27T05:39:26.563Z,6.03
2023-04-27T05:41:56.457Z,6.00
2023-04-27T05:44:29.491Z,5.97
2023-04-27T05:46:59.316Z,6.17
2023-04-27T05:49:29.062Z,6.40
2023-04-27T05:51:59.236Z,5.60
2023-04-27T05:54:31.937Z,6.13
2023-04-27T05:57:01.765Z,5.23
2023-04-27T05:59:31.684Z,5.50
2023-04-27T06:02:01.515Z,6.03
2023-04-27T06:04:33.007Z,6.20
2023-04-27T06:07:04.264Z,7.10
2023-04-27T06:09:36.967Z,9.53
2023-04-27T06:12:07.358Z,13.07
2023-04-27T06:14:39.789Z,13.03
2023-04-27T06:17:09.547Z,12.37
2023-04-27T06:19:39.447Z,13.23
2023-04-27T06:22:09.186Z,14.10
2023-04-27T06:24:42.707Z,10.97
2023-04-27T06:27:13.363Z,10.23
2023-04-27T06:29:43.129Z,8.87
2023-04-27T06:32:12.890Z,9.30
2023-04-27T06:34:42.709Z,9.77
2023-04-27T06:37:12.545Z,8.73
2023-04-27T06:39:44.917Z,8.20
2023-04-27T06:42:14.860Z,7.77
2023-04-27T06:44:45.068Z,10.40
2023-04-27T06:47:14.854Z,8.10
2023-04-27T06:49:44.584Z,8.63
2023-04-27T06:52:14.362Z,8.27
2023-04-27T06:54:46.959Z,9.60
2023-04-27T06:57:16.798Z,7.23
2023-04-27T06:59:46.600Z,7.67
2023-04-27T07:02:16.431Z,8.50
2023-04-27T07:04:46.769Z,8.27
2023-04-27T07:07:16.592Z,7.10
2023-04-27T07:09:48.942Z,7.63
2023-04-27T07:12:18.799Z,6.50
2023-04-27T07:14:50.870Z,3.27
2023-04-27T07:17:20.917Z,3.63
2023-04-27T07:19:50.760Z,3.60
2023-04-27T07:22:20.786Z,3.70
2023-04-27T07:24:53.473Z,3.80
2023-04-27T07:27:23.333Z,3.60
2023-04-27T07:29:53.507Z,3.40
2023-04-27T07:32:24.017Z,3.97
2023-04-27T07:34:54.542Z,4.20
2023-04-27T07:37:24.604Z,3.33
2023-04-27T07:39:57.898Z,3.40
2023-04-27T07:42:27.905Z,2.80
2023-04-27T07:44:57.732Z,2.37
2023-04-27T07:47:28.271Z,2.10
2023-04-27T07:49:58.133Z,2.87
2023-04-27T07:52:27.940Z,3.03
2023-04-27T07:55:00.255Z,3.27
2023-04-27T07:57:30.194Z,2.63
2023-04-27T08:00:00.330Z,2.70
2023-04-27T08:02:31.873Z,2.60
2023-04-27T08:05:03.121Z,2.00
2023-04-27T08:07:34.632Z,2.20
2023-04-27T08:10:11.126Z,2.20
2023-04-27T08:12:40.927Z,4.30
2023-04-27T08:15:12.231Z,2.10
2023-04-27T08:17:43.803Z,2.63
2023-04-27T08:20:14.799Z,2.27
2023-04-27T08:22:44.998Z,2.37
2023-04-27T08:25:17.347Z,2.23
2023-04-27T08:27:47.118Z,2.93
2023-04-27T08:30:17.400Z,1.97
2023-04-27T08:32:47.887Z,2.70
2023-04-27T08:35:17.869Z,2.53
2023-04-27T08:37:47.629Z,2.40
2023-04-27T08:40:20.614Z,2.20
2023-04-27T08:42:58.003Z,2.57
2023-04-27T08:45:28.997Z,2.13
2023-04-27T08:47:58.780Z,2.10
2023-04-27T08:50:28.824Z,2.47
2023-04-27T08:52:58.695Z,2.23
2023-04-27T08:55:31.160Z,2.13
2023-04-27T08:58:01.880Z,2.07
2023-04-27T09:00:42.386Z,2.00
2023-04-27T09:03:22.362Z,1.70
2023-04-27T09:06:03.444Z,1.77
2023-04-27T09:08:44.621Z,2.00
2023-04-27T09:11:17.280Z,1.13
2023-04-27T09:13:47.903Z,3.20
2023-04-27T09:16:17.771Z,1.80
2023-04-27T09:18:47.520Z,1.70
2023-04-27T09:21:25.878Z,1.83
2023-04-27T09:23:56.545Z,1.83
2023-04-27T09:26:32.008Z,1.63
2023-04-27T09:29:01.768Z,1.90
2023-04-27T09:31:34.610Z,3.20
2023-04-27T09:34:05.200Z,1.90
2023-04-27T09:36:35.146Z,2.00
2023-04-27T09:39:07.323Z,2.50
2023-04-27T09:41:39.820Z,2.27
2023-04-27T09:44:11.238Z,3.00
2023-04-27T09:46:41.335Z,1.93
2023-04-27T09:49:11.812Z,2.20
2023-04-27T09:51:41.746Z,2.27
2023-04-27T09:54:14.026Z,1.77
2023-04-27T09:56:54.029Z,1.77
2023-04-27T09:59:39.330Z,2.13
2023-04-27T10:02:23.587Z,1.70
2023-04-27T10:05:19.660Z,2.13
2023-04-27T10:07:49.892Z,1.63
2023-04-27T10:10:20.925Z,1.90
2023-04-27T10:13:04.562Z,2.20
2023-04-27T10:15:34.495Z,1.73
2023-04-27T10:18:08.879Z,2.30
2023-04-27T10:20:41.114Z,1.93
2023-04-27T10:23:10.912Z,1.70
2023-04-27T10:25:42.148Z,1.97
2023-04-27T10:28:20.767Z,1.83
2023-04-27T10:30:52.104Z,1.77
2023-04-27T10:33:25.328Z,1.90
2023-04-27T10:36:00.555Z,2.20
2023-04-27T10:38:33.277Z,2.03
2023-04-27T10:41:05.820Z,1.70
2023-04-27T10:43:39.189Z,2.07
2023-04-27T10:46:14.512Z,1.80
2023-04-27T10:48:44.557Z,1.77
2023-04-27T10:51:18.518Z,2.17
2023-04-27T10:53:48.286Z,1.60
2023-04-27T10:56:20.381Z,1.70
2023-04-27T10:58:52.829Z,2.03
2023-04-27T11:01:29.949Z,2.00
2023-04-27T11:04:00.954Z,2.40
2023-04-27T11:06:32.308Z,1.80
2023-04-27T11:09:02.384Z,2.37
2023-04-27T11:11:40.092Z,2.10
2023-04-27T11:14:12.648Z,2.10
2023-04-27T11:16:49.102Z,2.23
2023-04-27T11:19:18.835Z,2.03
2023-04-27T11:21:48.583Z,2.27
2023-04-27T11:24:18.326Z,2.33
2023-04-27T11:26:54.950Z,2.03
2023-04-27T11:29:27.336Z,2.20
2023-04-27T11:31:57.090Z,1.97
2023-04-27T11:34:28.003Z,2.57
2023-04-27T11:37:16.700Z,1.80
2023-04-27T11:39:48.674Z,2.17
2023-04-27T11:42:20.829Z,2.27
2023-04-27T11:45:01.909Z,2.30
2023-04-27T11:47:33.988Z,2.43
2023-04-27T11:50:05.271Z,1.93
2023-04-27T11:52:36.792Z,2.10
2023-04-27T11:55:09.166Z,1.60
2023-04-27T11:57:39.587Z,2.03
2023-04-27T12:00:14.751Z,2.00
2023-04-27T12:02:46.568Z,2.00
2023-04-27T12:05:17.517Z,1.97
2023-04-27T12:07:47.424Z,2.07
2023-04-27T12:10:17.370Z,2.30
2023-04-27T12:12:47.147Z,2.57
2023-04-27T12:15:19.715Z,2.00
2023-04-27T12:17:49.588Z,1.77
2023-04-27T12:20:19.578Z,1.80
2023-04-27T12:22:49.350Z,1.83
2023-04-27T12:25:19.911Z,1.60
2023-04-27T12:27:50.312Z,1.77
2023-04-27T12:30:23.230Z,1.93
2023-04-27T12:32:53.099Z,2.40
2023-04-27T12:35:22.931Z,1.80
2023-04-27T12:37:52.928Z,2.00
2023-04-27T12:40:23.440Z,2.23
2023-04-27T12:42:53.232Z,1.70
2023-04-27T12:45:25.582Z,1.63
2023-04-27T12:48:03.395Z,1.83
2023-04-27T12:50:34.531Z,1.73
2023-04-27T12:53:05.029Z,2.10
2023-04-27T12:55:34.934Z,2.00
2023-04-27T12:58:04.963Z,2.40
2023-04-27T13:00:37.359Z,2.03
2023-04-27T13:03:08.040Z,1.93
2023-04-27T13:05:38.459Z,3.00
2023-04-27T13:08:08.509Z,1.80
2023-04-27T13:10:38.293Z,1.80
2023-04-27T13:13:08.057Z,1.93
2023-04-27T13:15:40.657Z,2.23
2023-04-27T13:18:10.575Z,1.80
2023-04-27T13:20:40.338Z,2.13
2023-04-27T13:23:10.240Z,1.77
2023-04-27T13:25:39.973Z,2.27
2023-04-27T13:28:09.736Z,2.10
2023-04-27T13:30:42.079Z,2.10
2023-04-27T13:33:22.710Z,1.57
2023-04-27T13:35:53.762Z,1.93
2023-04-27T13:38:23.592Z,1.70
2023-04-27T13:40:53.299Z,1.90
2023-04-27T13:43:23.135Z,1.80
2023-04-27T13:45:57.215Z,1.70
2023-04-27T13:48:28.594Z,1.97
2023-04-27T13:50:58.729Z,1.57
2023-04-27T13:53:29.171Z,1.90
2023-04-27T13:56:00.780Z,2.23
2023-04-27T13:58:30.962Z,1.93
2023-04-27T14:01:03.465Z,1.80
2023-04-27T14:03:34.042Z,2.13
2023-04-27T14:06:04.315Z,1.93
2023-04-27T14:08:34.458Z,2.17
2023-04-27T14:11:04.306Z,2.40
2023-04-27T14:13:34.105Z,1.77
2023-04-27T14:16:06.882Z,2.10
2023-04-27T14:18:36.706Z,2.10
2023-04-27T14:21:07.547Z,1.93
2023-04-27T14:23:37.788Z,2.10
2023-04-27T14:26:07.858Z,1.87
2023-04-27T14:28:37.634Z,1.90
2023-04-27T14:31:09.963Z,1.70
2023-04-27T14:33:40.511Z,1.97
2023-04-27T14:36:10.733Z,2.17
2023-04-27T14:38:40.547Z,1.60
2023-04-27T14:41:10.879Z,1.73
2023-04-27T14:43:40.617Z,2.20
2023-04-27T14:48:49.855Z,1.97
2023-04-27T14:51:19.790Z,2.20
2023-04-27T14:53:49.558Z,1.90
2023-04-27T14:56:19.316Z,1.97
2023-04-27T14:58:49.050Z,1.77
2023-04-27T15:01:21.683Z,1.70
2023-04-27T15:03:53.246Z,1.90
2023-04-27T15:06:24.408Z,2.57
2023-04-27T15:08:54.162Z,2.87
2023-04-27T15:11:23.914Z,1.87
2023-04-27T15:13:53.713Z,2.40
2023-04-27T15:16:26.188Z,1.90
2023-04-27T15:18:55.929Z,2.20
2023-04-27T15:21:25.666Z,1.97
2023-04-27T15:23:55.485Z,2.47
2023-04-27T15:26:25.309Z,2.20
2023-04-27T15:28:55.164Z,1.80
2023-04-27T15:31:27.647Z,1.93
2023-04-27T15:33:57.434Z,1.80
2023-04-27T15:36:28.595Z,1.83
2023-04-27T15:38:58.358Z,1.97
2023-04-27T15:41:28.112Z,2.27
2023-04-27T15:43:57.861Z,2.10
2023-04-27T15:46:30.596Z,2.27
2023-04-27T15:49:00.367Z,2.10
2023-04-27T15:51:30.102Z,2.93
2023-04-27T15:53:59.874Z,1.97
2023-04-27T15:56:30.897Z,2.37
2023-04-27T15:59:01.016Z,2.77
2023-04-27T16:01:33.402Z,2.20
2023-04-27T16:04:03.391Z,2.33
2023-04-27T16:06:34.890Z,3.17
2023-04-27T16:09:09.817Z,2.10
2023-04-27T16:11:40.245Z,3.00
2023-04-27T16:14:09.967Z,2.27
2023-04-27T16:16:42.340Z,2.37
2023-04-27T16:19:12.474Z,3.00
2023-04-27T16:21:42.398Z,2.27
2023-04-27T16:24:12.604Z,2.70
2023-04-27T16:26:42.321Z,2.57
2023-04-27T16:29:12.237Z,2.37
2023-04-27T16:31:45.650Z,2.30
2023-04-27T16:34:15.506Z,2.60
2023-04-27T16:36:46.866Z,2.20
2023-04-27T16:39:19.050Z,2.23
2023-04-27T16:41:48.875Z,2.37
2023-04-27T16:44:18.916Z,2.20
2023-04-27T16:46:52.140Z,2.17
2023-04-27T16:49:21.943Z,2.00
2023-04-27T16:51:52.846Z,2.00
2023-04-27T16:54:22.664Z,2.80
2023-04-27T16:56:54.591Z,2.73
2023-04-27T16:59:25.079Z,2.50
2023-04-27T17:02:00.010Z,2.97
2023-04-27T17:04:40.120Z,2.20
2023-04-27T17:07:09.965Z,2.30
2023-04-27T17:09:40.104Z,2.70
2023-04-27T17:12:12.375Z,3.00
2023-04-27T17:14:42.740Z,2.60
2023-04-27T17:17:15.305Z,2.50
2023-04-27T17:19:45.038Z,2.20
2023-04-27T17:22:15.127Z,2.17
2023-04-27T17:24:44.897Z,2.10
2023-04-27T17:27:14.618Z,2.73
2023-04-27T17:29:44.430Z,2.53
2023-04-27T17:32:17.384Z,2.27
2023-04-27T17:34:47.182Z,2.73
2023-04-27T17:37:17.061Z,2.43
2023-04-27T17:39:47.585Z,2.40
2023-04-27T17:42:17.299Z,2.60
2023-04-27T17:44:47.032Z,2.30
2023-04-27T17:47:20.640Z,2.20
2023-04-27T17:49:50.351Z,2.70
2023-04-27T17:52:20.086Z,2.60
2023-04-27T17:54:49.849Z,2.30
2023-04-27T17:57:19.608Z,2.50
2023-04-27T17:59:50.164Z,2.00
2023-04-27T18:02:22.874Z,2.17
2023-04-27T18:04:53.021Z,2.80
2023-04-27T18:07:22.962Z,10.50
2023-04-27T18:09:52.772Z,2.83
2023-04-27T18:12:22.595Z,2.90
2023-04-27T18:14:53.138Z,2.63
2023-04-27T18:17:26.162Z,2.83
2023-04-27T18:20:07.521Z,2.40
2023-04-27T18:22:40.202Z,2.90
2023-04-27T18:25:12.023Z,2.70
2023-04-27T18:27:41.932Z,2.90
2023-04-27T18:30:12.029Z,4.20
2023-04-27T18:32:44.375Z,2.77
2023-04-27T18:35:14.160Z,3.93
2023-04-27T18:37:48.292Z,6.90
2023-04-27T18:40:18.978Z,3.47
2023-04-27T18:42:48.898Z,2.90
2023-04-27T18:45:18.842Z,3.20
2023-04-27T18:47:51.253Z,3.40
2023-04-27T18:50:21.144Z,3.03
2023-04-27T18:52:50.902Z,2.60
2023-04-27T18:55:20.929Z,2.97
2023-04-27T18:57:50.688Z,2.90
2023-04-27T19:00:20.512Z,4.20
2023-04-27T19:02:53.408Z,3.33
2023-04-27T19:05:23.367Z,3.90
2023-04-27T19:07:53.164Z,3.37
2023-04-27T19:10:23.937Z,2.90
2023-04-27T19:12:54.229Z,3.00
2023-04-27T19:15:24.280Z,3.13
2023-04-27T19:18:02.832Z,2.80
2023-04-27T19:20:39.578Z,2.50
2023-04-27T19:23:12.654Z,2.80
2023-04-27T19:25:43.141Z,3.23
2023-04-27T19:28:13.317Z,2.60
2023-04-27T19:30:43.471Z,3.30
2023-04-27T19:33:17.565Z,2.70
2023-04-27T19:35:49.151Z,3.80
2023-04-27T19:38:18.934Z,3.03
2023-04-27T19:40:49.974Z,3.50
2023-04-27T19:43:19.690Z,3.83
2023-04-27T19:45:49.693Z,3.60
2023-04-27T19:48:22.060Z,3.97
2023-04-27T19:50:51.865Z,3.53
2023-04-27T19:53:21.588Z,3.10
2023-04-27T19:55:51.530Z,3.10
2023-04-27T19:58:21.708Z,2.93
2023-04-27T20:00:51.620Z,3.53
2023-04-27T20:03:24.468Z,3.33
2023-04-27T20:05:54.571Z,3.37
2023-04-27T20:08:24.858Z,2.80
2023-04-27T20:10:54.614Z,2.97
2023-04-27T20:13:24.387Z,2.63
2023-04-27T20:15:54.265Z,2.90
2023-04-27T20:18:31.604Z,4.10
2023-04-27T20:21:01.654Z,3.17
2023-04-27T20:23:31.618Z,3.23
2023-04-27T20:26:01.377Z,3.00
2023-04-27T20:28:31.338Z,2.83
2023-04-27T20:31:01.102Z,3.23
2023-04-27T20:33:33.422Z,2.93
2023-04-27T20:36:14.260Z,2.87
2023-04-27T20:38:47.423Z,2.80
2023-04-27T20:41:17.276Z,2.70
2023-04-27T20:43:47.604Z,2.67
2023-04-27T20:46:17.401Z,3.47
2023-04-27T20:48:49.906Z,3.23
2023-04-27T20:51:19.663Z,3.17
2023-04-27T20:53:49.455Z,3.33
2023-04-27T20:56:20.305Z,3.70
2023-04-27T20:58:50.039Z,3.70
2023-04-27T21:01:19.895Z,3.03
2023-04-27T21:03:52.586Z,3.60
2023-04-27T21:06:22.487Z,4.20
2023-04-27T21:08:52.217Z,3.33
2023-04-27T21:11:22.238Z,3.97
2023-04-27T21:13:52.118Z,3.50
2023-04-27T21:16:22.019Z,3.57
2023-04-27T21:18:54.311Z,3.67
2023-04-27T21:21:24.577Z,4.20
2023-04-27T21:24:00.804Z,4.10
2023-04-27T21:26:36.819Z,4.00
2023-04-27T21:29:08.360Z,4.00
2023-04-27T21:31:38.345Z,4.67
2023-04-27T21:34:10.964Z,4.93
2023-04-27T21:36:40.692Z,4.83
2023-04-27T21:39:10.711Z,4.10
2023-04-27T21:41:41.232Z,4.17
2023-04-27T21:44:11.513Z,4.30
2023-04-27T21:46:41.415Z,3.70
2023-04-27T21:49:13.819Z,4.30
2023-04-27T21:51:43.615Z,3.90
2023-04-27T21:54:13.793Z,3.90
2023-04-27T21:56:43.848Z,3.60
2023-04-27T21:59:13.604Z,4.03
2023-04-27T22:01:44.062Z,3.60
2023-04-27T22:04:16.979Z,4.27
2023-04-27T22:06:47.099Z,4.30
2023-04-27T22:09:17.111Z,3.80
2023-04-27T22:11:47.057Z,3.73
2023-04-27T22:14:17.360Z,4.23
2023-04-27T22:16:49.008Z,3.87
2023-04-27T22:19:21.383Z,3.90
2023-04-27T22:21:51.149Z,4.43
2023-04-27T22:24:20.917Z,4.53
2023-04-27T22:26:50.994Z,4.53
2023-04-27T22:29:20.870Z,4.57
2023-04-27T22:31:50.747Z,4.20
2023-04-27T22:34:23.157Z,4.57
2023-04-27T22:36:53.015Z,3.93
2023-04-27T22:39:22.823Z,5.23
2023-04-27T22:41:52.661Z,4.90
2023-04-27T22:44:22.419Z,4.83
2023-04-27T22:46:52.307Z,4.23
2023-04-27T22:49:24.823Z,3.77
2023-04-27T22:51:57.789Z,4.93
2023-04-27T22:54:27.560Z,4.80
2023-04-27T22:56:58.776Z,4.80
2023-04-27T22:59:28.594Z,4.80
2023-04-27T23:01:58.499Z,4.60
2023-04-27T23:04:31.062Z,4.80
2023-04-27T23:07:00.825Z,4.23
2023-04-27T23:09:31.162Z,4.90
2023-04-27T23:12:01.256Z,5.20
2023-04-27T23:14:31.551Z,4.40
2023-04-27T23:17:01.979Z,4.50
2023-04-27T23:19:34.383Z,4.80
2023-04-27T23:22:04.399Z,5.70
2023-04-27T23:24:34.154Z,5.50
2023-04-27T23:27:04.030Z,5.37
2023-04-27T23:29:33.802Z,5.10
2023-04-27T23:32:04.710Z,5.40
2023-04-27T23:34:37.197Z,5.17
2023-04-27T23:37:07.814Z,5.63
2023-04-27T23:39:37.639Z,5.43
2023-04-27T23:42:07.787Z,4.77
2023-04-27T23:44:37.785Z,4.50
2023-04-27T23:47:07.793Z,4.60
2023-04-27T23:49:40.218Z,5.33
2023-04-27T23:52:10.007Z,5.53
2023-04-27T23:54:39.813Z,5.60
2023-04-27T23:57:09.657Z,4.93
2023-04-27T23:59:39.712Z,4.80
